Al Rekayyat — V7QF3 — position and weather

sailwx.info

Track history (hours):
 
Tides and Currents Weather Stations Pressure Air Temp Water Temp Dewpoint Dewpoint Depression Visibility Wind Speed Wind Dir Waves Ship Positions

Al Rekayyat

Last reported at 2016-Nov-19 20:33 UTC. Time now 2016-Dec-07 20:24 UTC.
Position N 01°10' E 103°43'.
Warning: this ship's position is 17 days out of date.

Length 315 m; draft 9.5 m.

Type: Ship (hazmat cat D). MMSI: 538003347.

Date/timePositionNaut miles runAvg speedWind from/ knotsBaromVisibWave heightAir tempDewpointWater temp
2016-Nov-19 20:33N 01°10' E 103°43'0 0.0
2016-Nov-19 02:33N 01°10' E 103°43'0 0.0
2016-Nov-19 01:04N 01°10' E 103°43'0 0.0
2016-Nov-19 00:23N 01°10' E 103°43'0 0.0
2016-Nov-18 11:19N 01°10' E 103°43'1 0.4
2016-Nov-18 07:27N 01°09' E 103°44'12 6.4
2016-Nov-18 05:33N 01°14' E 103°55'  
2016-Nov-11 10:33N 35°22' E 139°49'1 1.3
2016-Nov-11 09:31N 35°21' E 139°49'0 0.0
2016-Nov-11 06:33N 35°21' E 139°49'0 0.0
2016-Nov-11 05:31N 35°21' E 139°49'0 0.0
2016-Nov-11 04:31N 35°21' E 139°49'0 0.0
2016-Nov-11 03:32N 35°21' E 139°49'0 0.0
2016-Nov-11 02:33N 35°21' E 139°49'0 0.0
2016-Nov-11 01:31N 35°21' E 139°49'0 0.0
2016-Nov-11 00:28N 35°21' E 139°49'0 0.0
2016-Nov-10 23:32N 35°21' E 139°49'0 0.0
2016-Nov-10 22:32N 35°21' E 139°49'0 0.0
2016-Nov-10 20:31N 35°21' E 139°49'0 0.0
2016-Nov-10 18:32N 35°21' E 139°49'0 0.0
2016-Nov-10 16:33N 35°21' E 139°49'0 0.0
2016-Nov-10 15:31N 35°21' E 139°49'0 0.0
2016-Nov-10 11:31N 35°21' E 139°49'0 0.0
2016-Nov-10 10:31N 35°21' E 139°49'0 0.0
2016-Nov-10 09:32N 35°21' E 139°49'0 0.0
2016-Nov-10 08:33N 35°21' E 139°49'0 0.0
2016-Nov-10 07:33N 35°21' E 139°49'0 0.0
2016-Nov-10 06:31N 35°21' E 139°49'0 0.0
2016-Nov-10 05:26N 35°21' E 139°49'0 0.0
2016-Nov-10 04:33N 35°21' E 139°49'10 2.5
2016-Nov-10 00:33N 35°11' E 139°47'  
Track history (hours):
 
Tides and Currents Weather Stations Pressure Air Temp Water Temp Dewpoint Dewpoint Depression Visibility Wind Speed Wind Dir Waves Ship Positions

Al Rekayyat

Last reported at 2016-Nov-19 20:33 UTC. Time now 2016-Dec-07 20:24 UTC.
Position N 01°10' E 103°43'.
Warning: this ship's position is 17 days out of date.

Length 315 m; draft 9.5 m.

Type: Ship (hazmat cat D). MMSI: 538003347.

Date/timePositionNaut miles runAvg speedWind from/ knotsBaromVisibWave heightAir tempDewpointWater temp
2016-Nov-19 20:33N 01°10' E 103°43'0 0.0
2016-Nov-19 02:33N 01°10' E 103°43'0 0.0
2016-Nov-19 01:04N 01°10' E 103°43'0 0.0
2016-Nov-19 00:23N 01°10' E 103°43'0 0.0
2016-Nov-18 11:19N 01°10' E 103°43'1 0.4
2016-Nov-18 07:27N 01°09' E 103°44'12 6.4
2016-Nov-18 05:33N 01°14' E 103°55'  
2016-Nov-11 10:33N 35°22' E 139°49'1 1.3
2016-Nov-11 09:31N 35°21' E 139°49'0 0.0
2016-Nov-11 06:33N 35°21' E 139°49'0 0.0
2016-Nov-11 05:31N 35°21' E 139°49'0 0.0
2016-Nov-11 04:31N 35°21' E 139°49'0 0.0
2016-Nov-11 03:32N 35°21' E 139°49'0 0.0
2016-Nov-11 02:33N 35°21' E 139°49'0 0.0
2016-Nov-11 01:31N 35°21' E 139°49'0 0.0
2016-Nov-11 00:28N 35°21' E 139°49'0 0.0
2016-Nov-10 23:32N 35°21' E 139°49'0 0.0
2016-Nov-10 22:32N 35°21' E 139°49'0 0.0
2016-Nov-10 20:31N 35°21' E 139°49'0 0.0
2016-Nov-10 18:32N 35°21' E 139°49'0 0.0
2016-Nov-10 16:33N 35°21' E 139°49'0 0.0
2016-Nov-10 15:31N 35°21' E 139°49'0 0.0
2016-Nov-10 11:31N 35°21' E 139°49'0 0.0
2016-Nov-10 10:31N 35°21' E 139°49'0 0.0
2016-Nov-10 09:32N 35°21' E 139°49'0 0.0
2016-Nov-10 08:33N 35°21' E 139°49'0 0.0
2016-Nov-10 07:33N 35°21' E 139°49'0 0.0
2016-Nov-10 06:31N 35°21' E 139°49'0 0.0
2016-Nov-10 05:26N 35°21' E 139°49'0 0.0
2016-Nov-10 04:33N 35°21' E 139°49'10 2.5
2016-Nov-10 00:33N 35°11' E 139°47'  

Dump ship's entire track history